createdAt,value
2022-10-19T00:09:10.618Z,0
2022-10-19T00:18:47.842Z,0
2022-10-19T00:28:25.607Z,0
2022-10-19T00:38:02.035Z,0
2022-10-19T00:47:39.182Z,0
2022-10-19T00:57:17.977Z,0
2022-10-19T01:16:32.967Z,0
2022-10-19T01:26:08.664Z,0
2022-10-19T01:35:45.860Z,0
2022-10-19T01:45:23.725Z,0
2022-10-19T01:55:00.540Z,0
2022-10-19T02:14:15.048Z,0
2022-10-19T02:23:54.074Z,0
2022-10-19T02:33:27.780Z,0
2022-10-19T02:43:06.188Z,0
2022-10-19T02:52:42.856Z,0
2022-10-19T03:02:20.948Z,0
2022-10-19T03:12:00.246Z,0
2022-10-19T03:31:12.580Z,0
2022-10-19T03:40:51.479Z,0
2022-10-19T03:50:29.160Z,0
2022-10-19T04:00:05.021Z,0
2022-10-19T04:09:41.996Z,0
2022-10-19T04:19:18.868Z,0
2022-10-19T04:28:56.185Z,0
2022-10-19T04:38:32.908Z,0
2022-10-19T04:57:46.706Z,0
2022-10-19T05:17:00.836Z,0
2022-10-19T05:26:39.186Z,0
2022-10-19T05:36:15.505Z,0
2022-10-19T05:45:53.155Z,5.63
2022-10-19T05:55:29.593Z,16.88
2022-10-19T06:05:06.384Z,28.13
2022-10-19T06:14:43.418Z,33.75
2022-10-19T06:33:58.603Z,56.25
2022-10-19T06:43:35.479Z,84.38
2022-10-19T07:02:51.140Z,118.13
2022-10-19T07:12:28.548Z,118.13
2022-10-19T07:22:06.098Z,140.63
2022-10-19T07:50:58.700Z,202.5
2022-10-19T08:00:36.593Z,241.88
2022-10-19T08:10:14.307Z,225
2022-10-19T08:19:52.260Z,270
2022-10-19T08:29:31.388Z,326.25
2022-10-19T08:39:09.789Z,331.88
2022-10-19T08:48:46.926Z,393.75
2022-10-19T09:07:59.831Z,281.25
2022-10-19T09:17:36.915Z,303.75
2022-10-19T09:27:14.221Z,326.25
2022-10-19T09:36:52.635Z,433.13
2022-10-19T09:46:30.102Z,410.63
2022-10-19T09:56:08.797Z,545.63
2022-10-19T10:05:47.446Z,365.63
2022-10-19T10:34:51.188Z,331.88
2022-10-19T10:44:18.031Z,365.63
2022-10-19T10:53:55.438Z,360
2022-10-19T11:03:32.176Z,360
2022-10-19T11:13:09.551Z,421.88
2022-10-19T11:32:28.344Z,815.63
2022-10-19T11:42:03.754Z,421.88
2022-10-19T11:51:39.791Z,331.88
2022-10-19T12:01:15.801Z,275.63
2022-10-19T12:10:52.106Z,281.25
2022-10-19T12:30:07.802Z,405
2022-10-19T12:39:47.191Z,540
2022-10-19T12:49:29.476Z,376.88
2022-10-19T13:08:41.146Z,365.63
2022-10-19T13:18:18.897Z,438.75
2022-10-19T13:27:57.915Z,472.5
2022-10-19T13:47:09.199Z,247.5
2022-10-19T13:56:45.567Z,208.13
2022-10-19T14:06:23.565Z,298.13
2022-10-19T14:16:01.846Z,337.5
2022-10-19T14:25:38.280Z,163.13
2022-10-19T14:35:14.476Z,151.88
2022-10-19T14:44:50.729Z,95.63
2022-10-19T15:04:03.829Z,84.38
2022-10-19T15:13:40.191Z,84.38
2022-10-19T15:23:17.772Z,56.25
2022-10-19T15:42:29.678Z,33.75
2022-10-19T15:52:06.608Z,16.88
2022-10-19T16:01:43.051Z,11.25
2022-10-19T16:11:19.580Z,5.63
2022-10-19T16:20:56.588Z,0
2022-10-19T16:30:33.312Z,0
2022-10-19T16:40:10.313Z,0
2022-10-19T16:49:46.920Z,0
2022-10-19T16:59:23.981Z,0
2022-10-19T17:37:52.512Z,0
2022-10-19T17:47:29.669Z,0
2022-10-19T17:57:08.186Z,0
2022-10-19T18:06:42.514Z,0
2022-10-19T18:16:18.366Z,0
2022-10-19T18:35:31.280Z,0
2022-10-19T18:54:43.740Z,0
2022-10-19T19:04:19.709Z,0
2022-10-19T19:13:55.884Z,0
2022-10-19T19:33:09.509Z,0
2022-10-19T19:42:45.783Z,0
2022-10-19T19:52:23.885Z,0
2022-10-19T20:01:58.800Z,0
2022-10-19T20:11:41.205Z,0
2022-10-19T20:21:12.234Z,0
2022-10-19T20:30:50.786Z,0
2022-10-19T21:09:15.901Z,0
2022-10-19T21:28:29.368Z,0
2022-10-19T21:38:05.894Z,0
2022-10-19T21:47:44.802Z,0
2022-10-19T21:57:20.286Z,0
2022-10-19T22:06:56.734Z,0
2022-10-19T22:16:32.666Z,0
2022-10-19T22:26:08.905Z,0
2022-10-19T22:45:22.692Z,0
2022-10-19T23:04:36.353Z,0
2022-10-19T23:23:49.552Z,0
2022-10-19T23:33:28.643Z,0
2022-10-19T23:43:03.820Z,0
2022-10-19T23:52:40.498Z,0
